sensor_id;sensor_type;location;lat;lon;timestamp;pressure;altitude;pressure_sealevel;temperature;humidity
12349;BME280;5974;42.710;27.258;2023-04-03T00:01:26;99508.78;;;7.69;100.00
12349;BME280;5974;42.710;27.258;2023-04-03T00:03:53;99501.03;;;8.33;100.00
12349;BME280;5974;42.710;27.258;2023-04-03T00:06:21;99490.31;;;8.60;100.00
12349;BME280;5974;42.710;27.258;2023-04-03T00:08:47;99479.75;;;8.63;100.00
12349;BME280;5974;42.710;27.258;2023-04-03T00:11:16;99478.78;;;8.66;100.00
12349;BME280;5974;42.710;27.258;2023-04-03T00:13:44;99480.34;;;8.50;100.00
12349;BME280;5974;42.710;27.258;2023-04-03T00:16:11;99478.00;;;8.64;100.00
12349;BME280;5974;42.710;27.258;2023-04-03T00:18:38;99478.06;;;8.62;100.00
12349;BME280;5974;42.710;27.258;2023-04-03T00:21:06;99469.28;;;8.45;100.00
12349;BME280;5974;42.710;27.258;2023-04-03T00:23:34;99468.09;;;8.32;100.00
12349;BME280;5974;42.710;27.258;2023-04-03T00:26:01;99469.22;;;7.83;100.00
12349;BME280;5974;42.710;27.258;2023-04-03T00:28:29;99471.16;;;7.33;100.00
12349;BME280;5974;42.710;27.258;2023-04-03T00:30:57;99464.53;;;7.69;100.00
12349;BME280;5974;42.710;27.258;2023-04-03T00:33:23;99471.66;;;7.66;100.00
12349;BME280;5974;42.710;27.258;2023-04-03T00:35:51;99474.09;;;7.47;100.00
12349;BME280;5974;42.710;27.258;2023-04-03T00:38:18;99477.09;;;7.59;100.00
12349;BME280;5974;42.710;27.258;2023-04-03T00:40:47;99475.06;;;7.66;100.00
12349;BME280;5974;42.710;27.258;2023-04-03T00:43:16;99479.38;;;7.67;100.00
12349;BME280;5974;42.710;27.258;2023-04-03T00:45:46;99449.38;;;7.58;100.00
12349;BME280;5974;42.710;27.258;2023-04-03T00:48:16;99461.03;;;7.70;100.00
12349;BME280;5974;42.710;27.258;2023-04-03T00:50:45;99453.44;;;7.21;100.00
12349;BME280;5974;42.710;27.258;2023-04-03T00:53:14;99480.97;;;6.29;100.00
12349;BME280;5974;42.710;27.258;2023-04-03T00:55:43;99484.91;;;6.40;100.00
12349;BME280;5974;42.710;27.258;2023-04-03T00:58:12;99486.22;;;6.77;100.00
12349;BME280;5974;42.710;27.258;2023-04-03T01:00:40;99484.69;;;6.71;100.00
12349;BME280;5974;42.710;27.258;2023-04-03T01:03:10;99491.63;;;6.95;100.00
12349;BME280;5974;42.710;27.258;2023-04-03T01:05:37;99498.28;;;7.02;100.00
12349;BME280;5974;42.710;27.258;2023-04-03T01:08:05;99490.47;;;7.04;100.00
12349;BME280;5974;42.710;27.258;2023-04-03T01:10:32;99493.75;;;7.07;100.00
12349;BME280;5974;42.710;27.258;2023-04-03T01:13:00;99501.78;;;7.01;100.00
12349;BME280;5974;42.710;27.258;2023-04-03T01:15:27;99508.47;;;7.08;100.00
12349;BME280;5974;42.710;27.258;2023-04-03T01:17:57;99501.31;;;7.15;100.00
12349;BME280;5974;42.710;27.258;2023-04-03T01:20:44;99512.81;;;7.08;100.00
12349;BME280;5974;42.710;27.258;2023-04-03T01:23:32;99505.13;;;7.05;100.00
12349;BME280;5974;42.710;27.258;2023-04-03T01:26:03;99503.28;;;7.08;100.00
12349;BME280;5974;42.710;27.258;2023-04-03T01:28:33;99497.41;;;7.03;100.00
12349;BME280;5974;42.710;27.258;2023-04-03T01:31:09;99503.41;;;6.56;100.00
12349;BME280;5974;42.710;27.258;2023-04-03T01:33:40;99499.06;;;5.78;100.00
12349;BME280;5974;42.710;27.258;2023-04-03T01:36:08;99500.69;;;6.34;100.00
12349;BME280;5974;42.710;27.258;2023-04-03T01:38:35;99498.88;;;5.84;100.00
12349;BME280;5974;42.710;27.258;2023-04-03T01:41:02;99495.22;;;6.17;100.00
12349;BME280;5974;42.710;27.258;2023-04-03T01:43:29;99501.72;;;5.47;100.00
12349;BME280;5974;42.710;27.258;2023-04-03T01:45:56;99506.03;;;5.17;100.00
12349;BME280;5974;42.710;27.258;2023-04-03T01:48:23;99507.59;;;5.81;100.00
12349;BME280;5974;42.710;27.258;2023-04-03T01:50:51;99511.09;;;6.08;100.00
12349;BME280;5974;42.710;27.258;2023-04-03T01:53:18;99512.00;;;6.33;100.00
12349;BME280;5974;42.710;27.258;2023-04-03T01:55:45;99505.53;;;6.45;100.00
12349;BME280;5974;42.710;27.258;2023-04-03T01:58:11;99510.31;;;6.57;100.00
12349;BME280;5974;42.710;27.258;2023-04-03T02:00:38;99513.88;;;6.54;100.00
12349;BME280;5974;42.710;27.258;2023-04-03T02:03:05;99505.91;;;6.59;100.00
12349;BME280;5974;42.710;27.258;2023-04-03T02:05:32;99507.97;;;6.49;100.00
12349;BME280;5974;42.710;27.258;2023-04-03T02:08:01;99507.31;;;6.43;100.00
12349;BME280;5974;42.710;27.258;2023-04-03T02:10:28;99514.53;;;6.60;100.00
12349;BME280;5974;42.710;27.258;2023-04-03T02:12:54;99513.69;;;6.59;100.00
12349;BME280;5974;42.710;27.258;2023-04-03T02:15:21;99520.75;;;6.80;100.00
12349;BME280;5974;42.710;27.258;2023-04-03T02:17:48;99510.44;;;5.72;100.00
12349;BME280;5974;42.710;27.258;2023-04-03T02:20:15;99508.25;;;5.31;100.00
12349;BME280;5974;42.710;27.258;2023-04-03T02:22:42;99517.78;;;5.00;100.00
12349;BME280;5974;42.710;27.258;2023-04-03T02:25:10;99512.59;;;5.60;100.00
12349;BME280;5974;42.710;27.258;2023-04-03T02:27:38;99516.66;;;5.96;100.00
12349;BME280;5974;42.710;27.258;2023-04-03T02:30:06;99516.94;;;6.15;100.00
12349;BME280;5974;42.710;27.258;2023-04-03T02:32:34;99519.16;;;6.25;100.00
12349;BME280;5974;42.710;27.258;2023-04-03T02:35:01;99525.78;;;6.34;100.00
12349;BME280;5974;42.710;27.258;2023-04-03T02:37:28;99519.56;;;6.39;100.00
12349;BME280;5974;42.710;27.258;2023-04-03T02:39:55;99509.91;;;6.43;100.00
12349;BME280;5974;42.710;27.258;2023-04-03T02:42:23;99507.50;;;5.57;100.00
12349;BME280;5974;42.710;27.258;2023-04-03T02:44:50;99494.97;;;5.41;100.00
12349;BME280;5974;42.710;27.258;2023-04-03T02:47:17;99506.19;;;5.70;100.00
12349;BME280;5974;42.710;27.258;2023-04-03T02:49:44;99525.75;;;6.09;100.00
12349;BME280;5974;42.710;27.258;2023-04-03T02:52:11;99530.19;;;5.78;100.00
12349;BME280;5974;42.710;27.258;2023-04-03T02:54:38;99533.69;;;6.05;100.00
12349;BME280;5974;42.710;27.258;2023-04-03T02:57:05;99526.69;;;6.07;100.00
12349;BME280;5974;42.710;27.258;2023-04-03T02:59:35;99538.78;;;6.08;100.00
12349;BME280;5974;42.710;27.258;2023-04-03T03:02:02;99539.13;;;6.23;100.00
12349;BME280;5974;42.710;27.258;2023-04-03T03:04:29;99532.47;;;5.88;100.00
12349;BME280;5974;42.710;27.258;2023-04-03T03:06:56;99532.72;;;5.79;100.00
12349;BME280;5974;42.710;27.258;2023-04-03T03:09:23;99537.63;;;5.90;100.00
12349;BME280;5974;42.710;27.258;2023-04-03T03:11:50;99537.50;;;5.64;100.00
12349;BME280;5974;42.710;27.258;2023-04-03T03:14:17;99532.22;;;5.67;100.00
12349;BME280;5974;42.710;27.258;2023-04-03T03:16:45;99528.56;;;5.74;100.00
12349;BME280;5974;42.710;27.258;2023-04-03T03:19:12;99532.13;;;5.70;100.00
12349;BME280;5974;42.710;27.258;2023-04-03T03:21:39;99534.00;;;4.75;100.00
12349;BME280;5974;42.710;27.258;2023-04-03T03:24:06;99546.59;;;5.49;100.00
12349;BME280;5974;42.710;27.258;2023-04-03T03:26:34;99544.63;;;5.28;100.00
12349;BME280;5974;42.710;27.258;2023-04-03T03:29:01;99511.94;;;5.52;100.00
12349;BME280;5974;42.710;27.258;2023-04-03T03:31:28;99547.22;;;5.85;100.00
12349;BME280;5974;42.710;27.258;2023-04-03T03:33:56;99552.25;;;5.91;100.00
12349;BME280;5974;42.710;27.258;2023-04-03T03:36:23;99553.31;;;5.85;100.00
12349;BME280;5974;42.710;27.258;2023-04-03T03:38:50;99553.59;;;6.04;100.00
12349;BME280;5974;42.710;27.258;2023-04-03T03:41:17;99555.16;;;5.51;100.00
12349;BME280;5974;42.710;27.258;2023-04-03T03:43:44;99556.13;;;5.76;100.00
12349;BME280;5974;42.710;27.258;2023-04-03T03:46:11;99564.63;;;6.11;100.00
12349;BME280;5974;42.710;27.258;2023-04-03T03:48:38;99554.44;;;5.75;100.00
12349;BME280;5974;42.710;27.258;2023-04-03T03:51:06;99554.63;;;5.98;100.00
12349;BME280;5974;42.710;27.258;2023-04-03T03:53:33;99553.69;;;6.01;100.00
12349;BME280;5974;42.710;27.258;2023-04-03T03:56:00;99540.06;;;5.65;100.00
12349;BME280;5974;42.710;27.258;2023-04-03T03:58:27;99546.41;;;5.84;100.00
12349;BME280;5974;42.710;27.258;2023-04-03T04:00:54;99556.84;;;5.54;100.00
12349;BME280;5974;42.710;27.258;2023-04-03T04:03:21;99553.25;;;6.15;100.00
12349;BME280;5974;42.710;27.258;2023-04-03T04:05:48;99542.50;;;6.27;100.00
12349;BME280;5974;42.710;27.258;2023-04-03T04:08:16;99547.19;;;6.42;100.00
12349;BME280;5974;42.710;27.258;2023-04-03T04:10:43;99545.22;;;6.48;100.00
12349;BME280;5974;42.710;27.258;2023-04-03T04:13:10;99545.72;;;6.60;100.00
12349;BME280;5974;42.710;27.258;2023-04-03T04:15:37;99541.00;;;6.46;100.00
12349;BME280;5974;42.710;27.258;2023-04-03T04:18:03;99543.69;;;6.92;100.00
12349;BME280;5974;42.710;27.258;2023-04-03T04:20:30;99544.00;;;6.59;100.00
12349;BME280;5974;42.710;27.258;2023-04-03T04:22:57;99557.28;;;6.76;100.00
12349;BME280;5974;42.710;27.258;2023-04-03T04:25:26;99559.03;;;7.00;100.00
12349;BME280;5974;42.710;27.258;2023-04-03T04:27:52;99556.84;;;7.36;100.00
12349;BME280;5974;42.710;27.258;2023-04-03T04:30:19;99556.34;;;7.73;100.00
12349;BME280;5974;42.710;27.258;2023-04-03T04:32:46;99547.28;;;8.04;100.00
12349;BME280;5974;42.710;27.258;2023-04-03T04:35:13;99534.66;;;7.72;100.00
12349;BME280;5974;42.710;27.258;2023-04-03T04:37:40;99520.28;;;7.85;100.00
12349;BME280;5974;42.710;27.258;2023-04-03T04:40:08;99517.88;;;8.24;100.00
12349;BME280;5974;42.710;27.258;2023-04-03T04:42:36;99520.81;;;8.37;100.00
12349;BME280;5974;42.710;27.258;2023-04-03T04:45:03;99526.81;;;7.95;100.00
12349;BME280;5974;42.710;27.258;2023-04-03T04:47:30;99525.00;;;8.41;100.00
12349;BME280;5974;42.710;27.258;2023-04-03T04:49:57;99502.78;;;7.67;100.00
12349;BME280;5974;42.710;27.258;2023-04-03T04:52:24;99532.69;;;8.44;100.00
12349;BME280;5974;42.710;27.258;2023-04-03T04:54:51;99535.72;;;8.55;100.00
12349;BME280;5974;42.710;27.258;2023-04-03T04:57:18;99536.22;;;8.21;100.00
12349;BME280;5974;42.710;27.258;2023-04-03T04:59:46;99544.03;;;8.63;100.00
12349;BME280;5974;42.710;27.258;2023-04-03T05:02:13;99546.13;;;9.15;100.00
12349;BME280;5974;42.710;27.258;2023-04-03T05:04:40;99545.34;;;8.93;100.00
12349;BME280;5974;42.710;27.258;2023-04-03T05:07:07;99544.31;;;9.92;100.00
12349;BME280;5974;42.710;27.258;2023-04-03T05:09:34;99503.56;;;10.25;100.00
12349;BME280;5974;42.710;27.258;2023-04-03T05:12:01;99523.25;;;10.32;100.00
12349;BME280;5974;42.710;27.258;2023-04-03T05:14:28;99541.97;;;11.09;100.00
12349;BME280;5974;42.710;27.258;2023-04-03T05:16:57;99539.09;;;12.11;100.00
12349;BME280;5974;42.710;27.258;2023-04-03T05:19:24;99524.06;;;11.99;100.00
12349;BME280;5974;42.710;27.258;2023-04-03T05:21:50;99547.47;;;11.37;100.00
12349;BME280;5974;42.710;27.258;2023-04-03T05:24:17;99548.84;;;10.95;100.00
12349;BME280;5974;42.710;27.258;2023-04-03T05:26:44;99561.78;;;11.30;100.00
12349;BME280;5974;42.710;27.258;2023-04-03T05:29:11;99542.50;;;11.49;100.00
12349;BME280;5974;42.710;27.258;2023-04-03T05:31:38;99568.47;;;11.69;100.00
12349;BME280;5974;42.710;27.258;2023-04-03T05:34:06;99584.03;;;12.03;100.00
12349;BME280;5974;42.710;27.258;2023-04-03T05:36:33;99583.63;;;10.97;100.00
12349;BME280;5974;42.710;27.258;2023-04-03T05:39:00;99583.81;;;12.08;100.00
12349;BME280;5974;42.710;27.258;2023-04-03T05:41:27;99586.63;;;12.50;100.00
12349;BME280;5974;42.710;27.258;2023-04-03T05:43:54;99581.41;;;12.80;100.00
12349;BME280;5974;42.710;27.258;2023-04-03T05:46:21;99572.94;;;13.48;100.00
12349;BME280;5974;42.710;27.258;2023-04-03T05:48:48;99577.47;;;14.69;100.00
12349;BME280;5974;42.710;27.258;2023-04-03T05:51:18;99576.38;;;16.59;96.13
12349;BME280;5974;42.710;27.258;2023-04-03T05:53:46;99579.84;;;18.72;82.23
12349;BME280;5974;42.710;27.258;2023-04-03T05:56:13;99581.47;;;20.07;72.54
12349;BME280;5974;42.710;27.258;2023-04-03T05:58:40;99587.19;;;22.57;60.90
12349;BME280;5974;42.710;27.258;2023-04-03T06:01:07;99599.69;;;24.54;53.83
12349;BME280;5974;42.710;27.258;2023-04-03T06:03:34;99604.09;;;25.44;48.79
12349;BME280;5974;42.710;27.258;2023-04-03T06:06:03;99596.19;;;24.62;48.43
12349;BME280;5974;42.710;27.258;2023-04-03T06:08:32;99599.72;;;23.09;49.57
12349;BME280;5974;42.710;27.258;2023-04-03T06:11:01;99587.41;;;23.60;48.58
12349;BME280;5974;42.710;27.258;2023-04-03T06:13:28;99583.56;;;23.88;48.23
12349;BME280;5974;42.710;27.258;2023-04-03T06:15:55;99601.69;;;23.51;49.86
12349;BME280;5974;42.710;27.258;2023-04-03T06:18:22;99590.06;;;24.27;47.74
12349;BME280;5974;42.710;27.258;2023-04-03T06:20:49;99587.38;;;24.11;47.79
12349;BME280;5974;42.710;27.258;2023-04-03T06:23:16;99578.56;;;21.54;50.79
12349;BME280;5974;42.710;27.258;2023-04-03T06:25:45;99576.41;;;21.21;51.29
12349;BME280;5974;42.710;27.258;2023-04-03T06:28:12;99588.91;;;20.23;52.31
12349;BME280;5974;42.710;27.258;2023-04-03T06:30:39;99579.59;;;19.17;54.15
12349;BME280;5974;42.710;27.258;2023-04-03T06:33:06;99586.06;;;19.24;55.74
12349;BME280;5974;42.710;27.258;2023-04-03T06:35:36;99587.44;;;18.98;55.27
12349;BME280;5974;42.710;27.258;2023-04-03T06:38:04;99594.97;;;18.27;57.50
12349;BME280;5974;42.710;27.258;2023-04-03T06:40:34;99586.81;;;17.53;59.33
12349;BME280;5974;42.710;27.258;2023-04-03T06:43:03;99573.44;;;17.10;60.97
12349;BME280;5974;42.710;27.258;2023-04-03T06:45:30;99580.00;;;16.69;61.10
12349;BME280;5974;42.710;27.258;2023-04-03T06:47:57;99584.25;;;17.18;60.71
12349;BME280;5974;42.710;27.258;2023-04-03T06:50:24;99585.03;;;16.96;61.24
12349;BME280;5974;42.710;27.258;2023-04-03T06:52:51;99582.31;;;17.09;60.43
12349;BME280;5974;42.710;27.258;2023-04-03T06:55:18;99591.38;;;17.51;60.17
12349;BME280;5974;42.710;27.258;2023-04-03T06:57:45;99598.16;;;17.66;59.31
12349;BME280;5974;42.710;27.258;2023-04-03T07:00:15;99590.56;;;17.95;58.64
12349;BME280;5974;42.710;27.258;2023-04-03T07:02:42;99591.34;;;18.51;57.69
12349;BME280;5974;42.710;27.258;2023-04-03T07:05:09;99605.41;;;19.15;56.23
12349;BME280;5974;42.710;27.258;2023-04-03T07:07:36;99616.31;;;19.63;55.90
12349;BME280;5974;42.710;27.258;2023-04-03T07:10:05;99612.91;;;20.42;53.32
12349;BME280;5974;42.710;27.258;2023-04-03T07:12:32;99619.97;;;19.62;53.98
12349;BME280;5974;42.710;27.258;2023-04-03T07:14:59;99626.16;;;19.10;54.95
12349;BME280;5974;42.710;27.258;2023-04-03T07:17:27;99618.53;;;19.88;53.88
12349;BME280;5974;42.710;27.258;2023-04-03T07:19:54;99622.09;;;20.38;53.38
12349;BME280;5974;42.710;27.258;2023-04-03T07:22:21;99616.03;;;20.85;51.97
12349;BME280;5974;42.710;27.258;2023-04-03T07:24:48;99613.53;;;21.13;51.96
12349;BME280;5974;42.710;27.258;2023-04-03T07:27:16;99609.78;;;20.37;52.01
12349;BME280;5974;42.710;27.258;2023-04-03T07:29:43;99595.72;;;19.45;54.14
12349;BME280;5974;42.710;27.258;2023-04-03T07:32:10;99615.94;;;19.97;53.17
12349;BME280;5974;42.710;27.258;2023-04-03T07:34:38;99625.50;;;19.17;54.81
12349;BME280;5974;42.710;27.258;2023-04-03T07:37:05;99628.69;;;19.73;54.41
12349;BME280;5974;42.710;27.258;2023-04-03T07:39:32;99631.16;;;19.65;53.45
12349;BME280;5974;42.710;27.258;2023-04-03T07:41:59;99638.78;;;19.59;53.53
12349;BME280;5974;42.710;27.258;2023-04-03T07:44:27;99638.53;;;19.92;53.72
12349;BME280;5974;42.710;27.258;2023-04-03T07:46:54;99634.31;;;20.20;52.86
12349;BME280;5974;42.710;27.258;2023-04-03T07:49:22;99639.06;;;20.56;52.58
12349;BME280;5974;42.710;27.258;2023-04-03T07:51:51;99639.22;;;20.74;51.20
12349;BME280;5974;42.710;27.258;2023-04-03T07:54:18;99646.09;;;20.76;51.55
12349;BME280;5974;42.710;27.258;2023-04-03T07:56:45;99651.84;;;20.32;51.70
12349;BME280;5974;42.710;27.258;2023-04-03T07:59:12;99654.28;;;20.14;51.74
12349;BME280;5974;42.710;27.258;2023-04-03T08:01:39;99645.13;;;19.97;52.29
12349;BME280;5974;42.710;27.258;2023-04-03T08:04:06;99643.84;;;19.92;53.11
12349;BME280;5974;42.710;27.258;2023-04-03T08:06:33;99645.91;;;19.58;52.94
12349;BME280;5974;42.710;27.258;2023-04-03T08:09:03;99642.91;;;19.72;52.74
12349;BME280;5974;42.710;27.258;2023-04-03T08:11:31;99651.13;;;19.28;54.18
12349;BME280;5974;42.710;27.258;2023-04-03T08:13:58;99654.84;;;19.87;53.26
12349;BME280;5974;42.710;27.258;2023-04-03T08:16:26;99648.47;;;19.90;52.76
12349;BME280;5974;42.710;27.258;2023-04-03T08:18:53;99650.59;;;19.96;53.01
12349;BME280;5974;42.710;27.258;2023-04-03T08:21:20;99641.81;;;20.05;52.47
12349;BME280;5974;42.710;27.258;2023-04-03T08:23:48;99639.47;;;20.42;53.18
12349;BME280;5974;42.710;27.258;2023-04-03T08:26:19;99648.84;;;19.85;54.24
12349;BME280;5974;42.710;27.258;2023-04-03T08:28:46;99642.41;;;20.09;52.78
12349;BME280;5974;42.710;27.258;2023-04-03T08:31:15;99642.53;;;19.77;53.47
12349;BME280;5974;42.710;27.258;2023-04-03T08:33:43;99636.63;;;19.73;54.28
12349;BME280;5974;42.710;27.258;2023-04-03T08:36:17;99638.59;;;19.71;52.86
12349;BME280;5974;42.710;27.258;2023-04-03T08:38:45;99640.28;;;19.52;53.17
12349;BME280;5974;42.710;27.258;2023-04-03T08:41:15;99635.56;;;19.55;52.71
12349;BME280;5974;42.710;27.258;2023-04-03T08:43:55;99625.41;;;20.30;52.01
12349;BME280;5974;42.710;27.258;2023-04-03T08:46:31;99620.78;;;20.82;51.51
12349;BME280;5974;42.710;27.258;2023-04-03T08:49:00;99604.78;;;20.53;52.39
12349;BME280;5974;42.710;27.258;2023-04-03T08:51:27;99610.13;;;20.63;52.25
12349;BME280;5974;42.710;27.258;2023-04-03T08:53:58;99614.06;;;20.87;50.42
12349;BME280;5974;42.710;27.258;2023-04-03T08:56:28;99609.38;;;20.32;52.21
12349;BME280;5974;42.710;27.258;2023-04-03T08:58:59;99606.25;;;21.15;51.59
12349;BME280;5974;42.710;27.258;2023-04-03T09:01:32;99604.63;;;21.87;49.05
12349;BME280;5974;42.710;27.258;2023-04-03T09:04:00;99603.69;;;21.32;49.06
12349;BME280;5974;42.710;27.258;2023-04-03T09:06:31;99607.69;;;21.65;49.58
12349;BME280;5974;42.710;27.258;2023-04-03T09:09:09;99606.09;;;21.72;49.34
12349;BME280;5974;42.710;27.258;2023-04-03T09:11:46;99604.47;;;21.61;49.17
12349;BME280;5974;42.710;27.258;2023-04-03T09:14:26;99604.97;;;21.28;49.67
12349;BME280;5974;42.710;27.258;2023-04-03T09:16:56;99600.50;;;21.00;49.68
12349;BME280;5974;42.710;27.258;2023-04-03T09:19:37;99602.00;;;20.74;49.91
12349;BME280;5974;42.710;27.258;2023-04-03T09:22:15;99597.56;;;21.22;48.91
12349;BME280;5974;42.710;27.258;2023-04-03T09:24:45;99591.38;;;21.41;48.26
12349;BME280;5974;42.710;27.258;2023-04-03T09:27:13;99591.69;;;21.19;49.28
12349;BME280;5974;42.710;27.258;2023-04-03T09:29:43;99590.84;;;20.61;49.62
12349;BME280;5974;42.710;27.258;2023-04-03T09:32:20;99592.03;;;20.28;50.29
12349;BME280;5974;42.710;27.258;2023-04-03T09:34:48;99587.63;;;20.08;50.85
12349;BME280;5974;42.710;27.258;2023-04-03T09:37:36;99588.53;;;20.27;50.75
12349;BME280;5974;42.710;27.258;2023-04-03T09:40:04;99590.13;;;20.59;50.21
12349;BME280;5974;42.710;27.258;2023-04-03T09:42:33;99585.66;;;20.59;50.19
12349;BME280;5974;42.710;27.258;2023-04-03T09:45:24;99590.59;;;20.24;51.43
12349;BME280;5974;42.710;27.258;2023-04-03T09:48:04;99588.00;;;20.43;50.38
12349;BME280;5974;42.710;27.258;2023-04-03T09:50:32;99594.88;;;20.15;50.82
12349;BME280;5974;42.710;27.258;2023-04-03T09:53:05;99595.69;;;20.06;50.34
12349;BME280;5974;42.710;27.258;2023-04-03T09:55:32;99598.38;;;20.16;51.04
12349;BME280;5974;42.710;27.258;2023-04-03T09:58:00;99591.50;;;20.43;49.73
12349;BME280;5974;42.710;27.258;2023-04-03T10:00:33;99580.88;;;20.53;49.41
12349;BME280;5974;42.710;27.258;2023-04-03T10:03:01;99580.06;;;20.62;50.14
12349;BME280;5974;42.710;27.258;2023-04-03T10:05:32;99586.34;;;20.42;49.15
12349;BME280;5974;42.710;27.258;2023-04-03T10:08:11;99577.38;;;21.20;49.22
12349;BME280;5974;42.710;27.258;2023-04-03T10:10:38;99578.53;;;20.88;48.82
12349;BME280;5974;42.710;27.258;2023-04-03T10:13:07;99568.03;;;20.77;49.56
12349;BME280;5974;42.710;27.258;2023-04-03T10:15:41;99556.56;;;20.48;50.39
12349;BME280;5974;42.710;27.258;2023-04-03T10:18:26;99563.28;;;20.71;49.60
12349;BME280;5974;42.710;27.258;2023-04-03T10:20:59;99569.03;;;20.76;49.33
12349;BME280;5974;42.710;27.258;2023-04-03T10:23:32;99567.19;;;20.86;48.73
12349;BME280;5974;42.710;27.258;2023-04-03T10:26:09;99564.41;;;20.59;48.37
12349;BME280;5974;42.710;27.258;2023-04-03T10:28:45;99561.19;;;20.36;48.80
12349;BME280;5974;42.710;27.258;2023-04-03T10:31:21;99560.06;;;20.87;47.93
12349;BME280;5974;42.710;27.258;2023-04-03T10:33:56;99561.84;;;21.05;46.66
12349;BME280;5974;42.710;27.258;2023-04-03T10:36:35;99559.50;;;20.64;47.46
12349;BME280;5974;42.710;27.258;2023-04-03T10:39:12;99558.22;;;20.49;48.42
12349;BME280;5974;42.710;27.258;2023-04-03T10:41:50;99515.88;;;20.57;48.22
12349;BME280;5974;42.710;27.258;2023-04-03T10:44:29;99534.41;;;22.43;45.05
12349;BME280;5974;42.710;27.258;2023-04-03T10:47:02;99554.19;;;22.23;45.48
12349;BME280;5974;42.710;27.258;2023-04-03T10:49:43;99544.66;;;22.02;46.18
12349;BME280;5974;42.710;27.258;2023-04-03T10:52:19;99545.69;;;21.82;46.69
12349;BME280;5974;42.710;27.258;2023-04-03T10:54:54;99549.63;;;21.78;47.01
12349;BME280;5974;42.710;27.258;2023-04-03T10:57:24;99550.91;;;21.37;48.21
12349;BME280;5974;42.710;27.258;2023-04-03T10:59:55;99543.53;;;21.22;48.31
12349;BME280;5974;42.710;27.258;2023-04-03T11:02:27;99535.44;;;20.85;49.15
12349;BME280;5974;42.710;27.258;2023-04-03T11:04:59;99530.66;;;20.98;49.01
12349;BME280;5974;42.710;27.258;2023-04-03T11:07:29;99539.25;;;20.63;52.49
12349;BME280;5974;42.710;27.258;2023-04-03T11:10:03;99538.66;;;19.51;58.35
12349;BME280;5974;42.710;27.258;2023-04-03T11:12:38;99557.38;;;18.87;61.33
12349;BME280;5974;42.710;27.258;2023-04-03T11:15:12;99559.72;;;19.22;63.23
12349;BME280;5974;42.710;27.258;2023-04-03T11:17:46;99565.75;;;18.29;64.21
12349;BME280;5974;42.710;27.258;2023-04-03T11:20:18;99561.72;;;17.69;65.98
12349;BME280;5974;42.710;27.258;2023-04-03T11:22:49;99539.56;;;17.26;67.22
12349;BME280;5974;42.710;27.258;2023-04-03T11:25:20;99567.69;;;17.38;68.64
12349;BME280;5974;42.710;27.258;2023-04-03T11:27:52;99565.75;;;17.18;69.58
12349;BME280;5974;42.710;27.258;2023-04-03T11:30:24;99570.31;;;17.16;69.14
12349;BME280;5974;42.710;27.258;2023-04-03T11:33:12;99558.97;;;17.71;68.67
12349;BME280;5974;42.710;27.258;2023-04-03T11:35:43;99554.66;;;17.02;69.14
12349;BME280;5974;42.710;27.258;2023-04-03T11:38:18;99561.34;;;16.84;69.77
12349;BME280;5974;42.710;27.258;2023-04-03T11:40:47;99553.94;;;17.00;69.89
12349;BME280;5974;42.710;27.258;2023-04-03T11:43:22;99556.09;;;16.95;70.15
12349;BME280;5974;42.710;27.258;2023-04-03T11:45:54;99551.75;;;16.59;72.38
12349;BME280;5974;42.710;27.258;2023-04-03T11:48:55;99552.16;;;16.42;73.97
12349;BME280;5974;42.710;27.258;2023-04-03T11:51:41;99555.16;;;16.61;74.40
12349;BME280;5974;42.710;27.258;2023-04-03T11:54:45;99549.94;;;16.83;74.45
12349;BME280;5974;42.710;27.258;2023-04-03T11:57:46;99533.06;;;16.38;75.90
12349;BME280;5974;42.710;27.258;2023-04-03T12:00:52;99547.69;;;16.55;77.58
12349;BME280;5974;42.710;27.258;2023-04-03T12:07:02;99550.06;;;15.74;82.70
12349;BME280;5974;42.710;27.258;2023-04-03T12:09:58;99547.41;;;15.87;85.31
12349;BME280;5974;42.710;27.258;2023-04-03T12:12:39;99554.84;;;15.56;88.33
12349;BME280;5974;42.710;27.258;2023-04-03T12:15:25;99555.94;;;15.14;93.92
12349;BME280;5974;42.710;27.258;2023-04-03T12:17:54;99552.25;;;15.04;98.55
12349;BME280;5974;42.710;27.258;2023-04-03T12:20:51;99559.63;;;14.99;100.00
12349;BME280;5974;42.710;27.258;2023-04-03T12:26:25;99552.06;;;14.95;100.00
12349;BME280;5974;42.710;27.258;2023-04-03T12:28:55;99546.69;;;15.34;100.00
12349;BME280;5974;42.710;27.258;2023-04-03T12:31:36;99547.22;;;15.39;100.00
12349;BME280;5974;42.710;27.258;2023-04-03T12:34:20;99515.09;;;15.09;100.00
12349;BME280;5974;42.710;27.258;2023-04-03T12:37:00;99540.47;;;14.97;100.00
12349;BME280;5974;42.710;27.258;2023-04-03T12:39:51;99539.09;;;15.42;100.00
12349;BME280;5974;42.710;27.258;2023-04-03T12:42:38;99538.19;;;15.56;100.00
12349;BME280;5974;42.710;27.258;2023-04-03T12:45:16;99529.63;;;15.65;100.00
12349;BME280;5974;42.710;27.258;2023-04-03T12:47:49;99527.09;;;15.51;100.00
12349;BME280;5974;42.710;27.258;2023-04-03T12:50:21;99522.84;;;16.10;100.00
12349;BME280;5974;42.710;27.258;2023-04-03T12:52:54;99517.28;;;15.40;100.00
12349;BME280;5974;42.710;27.258;2023-04-03T12:55:23;99521.59;;;15.66;100.00
12349;BME280;5974;42.710;27.258;2023-04-03T12:57:54;99518.16;;;15.15;100.00
12349;BME280;5974;42.710;27.258;2023-04-03T13:00:31;99519.72;;;15.68;100.00
12349;BME280;5974;42.710;27.258;2023-04-03T13:03:01;99507.84;;;16.10;100.00
12349;BME280;5974;42.710;27.258;2023-04-03T13:05:29;99513.56;;;16.87;100.00
12349;BME280;5974;42.710;27.258;2023-04-03T13:07:59;99514.78;;;16.83;100.00
12349;BME280;5974;42.710;27.258;2023-04-03T13:10:29;99513.38;;;16.55;100.00
12349;BME280;5974;42.710;27.258;2023-04-03T13:13:07;99507.13;;;16.56;100.00
12349;BME280;5974;42.710;27.258;2023-04-03T13:15:42;99510.75;;;16.55;100.00
12349;BME280;5974;42.710;27.258;2023-04-03T13:18:27;99513.28;;;17.24;100.00
12349;BME280;5974;42.710;27.258;2023-04-03T13:20:58;99512.19;;;16.35;100.00
12349;BME280;5974;42.710;27.258;2023-04-03T13:23:27;99498.16;;;16.46;100.00